createdAt,value
2018-12-18T00:00:59.240Z,99.99
2018-12-18T00:01:59.215Z,99.99
2018-12-18T00:02:59.191Z,99.99
2018-12-18T00:03:59.166Z,99.99
2018-12-18T00:04:59.142Z,99.99
2018-12-18T00:05:59.116Z,99.99
2018-12-18T00:06:59.093Z,99.99
2018-12-18T00:07:59.065Z,99.99
2018-12-18T00:08:59.043Z,99.99
2018-12-18T00:09:59.017Z,99.99
2018-12-18T00:10:58.994Z,99.99
2018-12-18T00:11:59.440Z,99.99
2018-12-18T00:12:58.941Z,99.99
2018-12-18T00:13:58.917Z,99.99
2018-12-18T00:14:58.891Z,99.99
2018-12-18T00:15:58.866Z,99.99
2018-12-18T00:16:58.843Z,99.99
2018-12-18T00:17:58.818Z,99.99
2018-12-18T00:18:58.952Z,99.99
2018-12-18T00:19:58.768Z,99.99
2018-12-18T00:20:58.745Z,99.99
2018-12-18T00:21:58.720Z,99.99
2018-12-18T00:22:58.694Z,99.99
2018-12-18T00:23:58.670Z,99.99
2018-12-18T00:24:58.674Z,99.99
2018-12-18T00:25:58.622Z,99.99
2018-12-18T00:26:58.595Z,99.99
2018-12-18T00:27:58.571Z,99.99
2018-12-18T00:28:58.547Z,99.99
2018-12-18T00:29:58.525Z,99.99
2018-12-18T00:30:58.496Z,99.99
2018-12-18T00:31:58.472Z,99.99
2018-12-18T00:32:58.446Z,99.99
2018-12-18T00:33:58.425Z,99.99
2018-12-18T00:34:58.396Z,99.99
2018-12-18T00:35:58.372Z,99.99
2018-12-18T00:36:58.347Z,99.99
2018-12-18T00:37:58.323Z,99.99
2018-12-18T00:38:58.296Z,99.99
2018-12-18T00:39:58.274Z,99.99
2018-12-18T00:40:58.249Z,99.99
2018-12-18T00:41:58.227Z,99.99
2018-12-18T00:42:58.198Z,99.99
2018-12-18T00:43:58.176Z,99.99
2018-12-18T00:44:58.150Z,99.99
2018-12-18T00:45:58.126Z,99.99
2018-12-18T00:46:58.100Z,99.99
2018-12-18T00:47:58.075Z,99.99
2018-12-18T00:48:58.050Z,99.99
2018-12-18T00:49:58.941Z,99.99
2018-12-18T00:50:58.000Z,99.99
2018-12-18T00:51:57.978Z,99.99
2018-12-18T00:52:57.952Z,99.99
2018-12-18T00:53:57.935Z,99.99
2018-12-18T00:54:57.902Z,99.99
2018-12-18T00:55:57.878Z,99.99
2018-12-18T00:56:57.852Z,99.99
2018-12-18T00:57:57.830Z,99.99
2018-12-18T00:58:57.802Z,99.99
2018-12-18T00:59:57.777Z,99.99
2018-12-18T01:00:57.754Z,99.99
2018-12-18T01:01:57.729Z,99.99
2018-12-18T01:02:57.702Z,99.99
2018-12-18T01:03:57.681Z,99.99
2018-12-18T01:04:57.654Z,99.99
2018-12-18T01:05:57.631Z,99.99
2018-12-18T01:06:57.605Z,99.99
2018-12-18T01:07:57.580Z,99.99
2018-12-18T01:08:57.555Z,99.99
2018-12-18T01:09:57.532Z,99.99
2018-12-18T01:10:57.512Z,99.99
2018-12-18T01:11:57.482Z,99.99
2018-12-18T01:12:57.459Z,99.99
2018-12-18T01:13:57.432Z,99.99
2018-12-18T01:14:57.406Z,99.99
2018-12-18T01:15:57.384Z,99.99
2018-12-18T01:16:57.378Z,99.99
2018-12-18T01:17:57.336Z,99.99
2018-12-18T01:18:57.311Z,99.99
2018-12-18T01:19:57.285Z,99.99
2018-12-18T01:20:57.260Z,99.99
2018-12-18T01:21:57.235Z,99.99
2018-12-18T01:22:57.210Z,99.99
2018-12-18T01:23:57.184Z,99.99
2018-12-18T01:24:57.162Z,99.99
2018-12-18T01:25:57.137Z,99.99
2018-12-18T01:26:57.112Z,99.99
2018-12-18T01:27:57.087Z,99.99
2018-12-18T01:28:57.061Z,99.99
2018-12-18T01:29:57.035Z,99.99
2018-12-18T01:30:57.011Z,99.99
2018-12-18T01:31:56.987Z,99.99
2018-12-18T01:32:56.962Z,99.99
2018-12-18T01:33:59.370Z,99.99
2018-12-18T01:34:56.912Z,99.99
2018-12-18T01:35:56.887Z,99.99
2018-12-18T01:36:56.863Z,99.99
2018-12-18T01:37:56.839Z,99.99
2018-12-18T01:38:56.813Z,99.99
2018-12-18T01:39:56.789Z,99.99
2018-12-18T01:40:56.764Z,99.99
2018-12-18T01:41:56.739Z,99.99
2018-12-18T01:42:56.713Z,99.99
2018-12-18T01:43:56.693Z,99.99
2018-12-18T01:44:56.665Z,99.99
2018-12-18T01:45:56.642Z,99.99
2018-12-18T01:46:56.617Z,99.99
2018-12-18T01:47:56.591Z,99.99
2018-12-18T01:48:56.567Z,99.99
2018-12-18T01:49:56.542Z,99.99
2018-12-18T01:50:57.019Z,99.99
2018-12-18T01:51:56.495Z,99.99
2018-12-18T01:52:56.470Z,99.99
2018-12-18T01:53:56.443Z,99.99
2018-12-18T01:54:56.420Z,99.99
2018-12-18T01:55:56.393Z,99.99
2018-12-18T01:56:56.369Z,99.99
2018-12-18T01:57:56.351Z,99.99
2018-12-18T01:58:56.319Z,99.99
2018-12-18T01:59:56.295Z,99.99
2018-12-18T02:00:56.270Z,99.99
2018-12-18T02:01:56.249Z,99.99
2018-12-18T02:02:56.222Z,99.99
2018-12-18T02:03:56.197Z,99.99
2018-12-18T02:04:56.171Z,99.99
2018-12-18T02:05:56.148Z,99.99
2018-12-18T02:06:56.122Z,99.99
2018-12-18T02:07:56.098Z,99.99
2018-12-18T02:08:56.077Z,99.99
2018-12-18T02:09:56.057Z,99.99
2018-12-18T02:10:56.056Z,99.99
2018-12-18T02:11:55.999Z,99.99
2018-12-18T02:12:55.976Z,99.99
2018-12-18T02:13:55.953Z,99.99
2018-12-18T02:14:55.924Z,99.99
2018-12-18T02:15:55.902Z,99.99
2018-12-18T02:16:55.877Z,99.99
2018-12-18T02:17:55.855Z,99.99
2018-12-18T02:18:55.826Z,99.99
2018-12-18T02:19:55.802Z,99.99
2018-12-18T02:20:55.780Z,99.99
2018-12-18T02:21:55.774Z,99.99
2018-12-18T02:22:55.728Z,99.99
2018-12-18T02:23:55.704Z,99.99
2018-12-18T02:24:55.680Z,99.99
2018-12-18T02:25:55.655Z,99.99
2018-12-18T02:26:55.634Z,99.99
2018-12-18T02:27:55.612Z,99.99
2018-12-18T02:28:55.586Z,99.99
2018-12-18T02:29:55.559Z,99.99
2018-12-18T02:30:55.532Z,99.99
2018-12-18T02:31:55.519Z,99.99
2018-12-18T02:32:55.483Z,99.99
2018-12-18T02:33:55.459Z,99.99
2018-12-18T02:34:55.434Z,99.99
2018-12-18T02:35:55.409Z,99.99
2018-12-18T02:36:55.385Z,99.99
2018-12-18T02:37:55.361Z,99.99
2018-12-18T02:38:55.335Z,99.99
2018-12-18T02:39:55.318Z,99.99
2018-12-18T02:40:55.286Z,99.99
2018-12-18T02:41:55.263Z,99.99
2018-12-18T02:42:55.244Z,99.99
2018-12-18T02:43:55.211Z,99.99
2018-12-18T02:44:55.187Z,99.99
2018-12-18T02:45:55.163Z,99.99
2018-12-18T02:46:55.136Z,99.99
2018-12-18T02:47:55.112Z,99.99
2018-12-18T02:48:55.087Z,99.99
2018-12-18T02:49:55.064Z,99.99
2018-12-18T02:50:56.174Z,99.99
2018-12-18T02:51:55.043Z,99.99
2018-12-18T02:52:54.989Z,99.99
2018-12-18T02:53:54.967Z,99.99
2018-12-18T02:54:54.946Z,99.99
2018-12-18T02:55:54.915Z,99.99
2018-12-18T02:56:54.890Z,99.99
2018-12-18T02:57:54.865Z,99.99
2018-12-18T02:58:54.840Z,99.99
2018-12-18T02:59:54.816Z,99.99
2018-12-18T03:00:54.795Z,99.99
2018-12-18T03:01:54.767Z,99.99
2018-12-18T03:02:54.740Z,99.99
2018-12-18T03:03:54.715Z,99.99
2018-12-18T03:04:54.692Z,99.99
2018-12-18T03:05:54.668Z,99.99
2018-12-18T03:06:54.643Z,99.99
2018-12-18T03:07:54.618Z,99.99
2018-12-18T03:08:54.661Z,99.99
2018-12-18T03:09:54.568Z,99.99
2018-12-18T03:10:54.544Z,99.99
2018-12-18T03:11:54.516Z,99.99
2018-12-18T03:12:54.493Z,99.99
2018-12-18T03:13:54.471Z,99.99
2018-12-18T03:14:54.444Z,99.99
2018-12-18T03:15:54.419Z,99.99
2018-12-18T03:16:54.393Z,99.99
2018-12-18T03:17:54.370Z,99.99
2018-12-18T03:18:54.345Z,99.99
2018-12-18T03:19:54.321Z,99.99
2018-12-18T03:20:54.303Z,99.99
2018-12-18T03:21:54.271Z,99.99
2018-12-18T03:22:55.106Z,99.99
2018-12-18T03:23:54.220Z,99.99
2018-12-18T03:24:54.197Z,99.99
2018-12-18T03:25:54.172Z,99.99
2018-12-18T03:26:54.147Z,99.99
2018-12-18T03:27:54.121Z,99.99
2018-12-18T03:28:54.099Z,99.99
2018-12-18T03:29:54.100Z,99.99
2018-12-18T03:30:54.048Z,99.99
2018-12-18T03:31:54.031Z,99.99
2018-12-18T03:32:54.000Z,99.99
2018-12-18T03:33:53.971Z,99.99
2018-12-18T03:34:53.952Z,99.99
2018-12-18T03:35:53.926Z,99.99
2018-12-18T03:36:53.897Z,99.99
2018-12-18T03:37:53.883Z,99.99
2018-12-18T03:38:53.850Z,99.99
2018-12-18T03:39:53.826Z,99.99
2018-12-18T03:40:53.807Z,99.99
2018-12-18T03:41:53.776Z,99.99
2018-12-18T03:42:53.750Z,99.99
2018-12-18T03:43:53.782Z,99.99
2018-12-18T03:44:53.700Z,99.99
2018-12-18T03:45:53.676Z,99.99
2018-12-18T03:46:53.649Z,99.99
2018-12-18T03:47:53.628Z,99.99
2018-12-18T03:48:53.599Z,99.99
2018-12-18T03:49:53.574Z,99.99
2018-12-18T03:50:53.548Z,99.99
2018-12-18T03:51:53.558Z,99.99
2018-12-18T03:52:53.506Z,99.99
2018-12-18T03:53:53.476Z,99.99
2018-12-18T03:54:53.452Z,99.99
2018-12-18T03:55:53.426Z,99.99
2018-12-18T03:56:53.402Z,99.99
2018-12-18T03:57:53.378Z,99.99
2018-12-18T03:58:53.353Z,99.99
2018-12-18T03:59:53.329Z,99.99
2018-12-18T04:00:53.306Z,99.99
2018-12-18T04:01:53.279Z,99.99
2018-12-18T04:02:53.251Z,99.99
2018-12-18T04:03:53.229Z,99.99
2018-12-18T04:04:53.203Z,99.99
2018-12-18T04:05:53.178Z,99.99
2018-12-18T04:06:53.156Z,99.99
2018-12-18T04:07:53.129Z,99.99
2018-12-18T04:08:53.107Z,99.99
2018-12-18T04:09:53.080Z,99.99
2018-12-18T04:10:53.057Z,99.99
2018-12-18T04:11:53.031Z,99.99
2018-12-18T04:12:53.005Z,99.99
2018-12-18T04:13:52.981Z,99.99
2018-12-18T04:14:52.954Z,99.99
2018-12-18T04:15:52.933Z,99.99
2018-12-18T04:16:52.905Z,99.99
2018-12-18T04:17:52.882Z,99.99
2018-12-18T04:18:52.856Z,99.99
2018-12-18T04:19:52.831Z,99.99
2018-12-18T04:20:52.810Z,99.99
2018-12-18T04:21:52.782Z,99.99
2018-12-18T04:22:52.755Z,99.99
2018-12-18T04:23:53.213Z,99.99
2018-12-18T04:24:52.712Z,99.99
2018-12-18T04:25:52.690Z,99.99
2018-12-18T04:26:52.662Z,99.99
2018-12-18T04:27:52.630Z,99.99
2018-12-18T04:28:52.610Z,99.99
2018-12-18T04:29:52.582Z,99.99
2018-12-18T04:30:52.556Z,99.99
2018-12-18T04:31:52.531Z,99.99
2018-12-18T04:32:52.507Z,99.99
2018-12-18T04:33:52.482Z,99.99
2018-12-18T04:34:52.455Z,99.99
2018-12-18T04:35:52.433Z,99.99
2018-12-18T04:36:52.405Z,99.99
2018-12-18T04:37:52.381Z,99.99
2018-12-18T04:38:52.355Z,99.99
2018-12-18T04:39:52.329Z,99.99
2018-12-18T04:40:52.304Z,99.99
2018-12-18T04:41:52.284Z,99.99
2018-12-18T04:42:52.253Z,99.99
2018-12-18T04:43:52.242Z,99.99
2018-12-18T04:44:52.204Z,99.99
2018-12-18T04:45:52.181Z,99.99
2018-12-18T04:46:52.153Z,99.99
2018-12-18T04:47:52.128Z,99.99
2018-12-18T04:48:52.102Z,99.99
2018-12-18T04:49:52.081Z,99.99
2018-12-18T04:50:52.054Z,99.99
2018-12-18T04:51:52.027Z,99.99
2018-12-18T04:52:52.004Z,99.99
2018-12-18T04:53:51.981Z,99.99
2018-12-18T04:54:51.953Z,99.99
2018-12-18T04:55:51.927Z,99.99
2018-12-18T04:56:51.905Z,99.99
2018-12-18T04:57:51.878Z,99.99
2018-12-18T04:58:51.853Z,99.99
2018-12-18T04:59:51.827Z,99.99
2018-12-18T05:00:51.804Z,99.99
2018-12-18T05:01:51.779Z,99.99
2018-12-18T05:02:51.751Z,99.99
2018-12-18T05:03:51.726Z,99.99
2018-12-18T05:04:51.700Z,99.99
2018-12-18T05:05:51.678Z,99.99
2018-12-18T05:06:51.652Z,99.99
2018-12-18T05:07:51.629Z,99.99
2018-12-18T05:08:51.606Z,99.99
2018-12-18T05:09:51.577Z,99.99
2018-12-18T05:10:51.551Z,99.99
2018-12-18T05:11:51.527Z,99.99
2018-12-18T05:12:51.501Z,99.99
2018-12-18T05:13:51.482Z,99.99
2018-12-18T05:14:51.451Z,99.99
2018-12-18T05:15:51.428Z,99.99
2018-12-18T05:16:51.401Z,99.99
2018-12-18T05:17:51.376Z,99.99
2018-12-18T05:18:51.356Z,99.99
2018-12-18T05:19:51.328Z,99.99
2018-12-18T05:20:51.303Z,99.99
2018-12-18T05:21:51.276Z,99.99
2018-12-18T05:22:51.254Z,99.99
2018-12-18T05:23:51.227Z,99.99
2018-12-18T05:24:51.201Z,99.99
2018-12-18T05:25:51.177Z,99.99
2018-12-18T05:26:51.151Z,99.99
2018-12-18T05:27:51.126Z,99.99
2018-12-18T05:28:51.112Z,99.99
2018-12-18T05:29:51.077Z,99.99
2018-12-18T05:30:51.053Z,99.99
2018-12-18T05:31:51.034Z,99.99
2018-12-18T05:32:51.001Z,99.99
2018-12-18T05:33:50.978Z,99.99
2018-12-18T05:34:56.389Z,99.99
2018-12-18T05:35:50.927Z,99.99
2018-12-18T05:36:50.903Z,99.99
2018-12-18T05:37:50.877Z,99.99
2018-12-18T05:38:50.852Z,99.99
2018-12-18T05:39:50.828Z,99.99
2018-12-18T05:40:50.803Z,99.99
2018-12-18T05:41:50.780Z,99.99
2018-12-18T05:42:50.755Z,99.99
2018-12-18T05:43:50.729Z,99.99
2018-12-18T05:44:50.704Z,99.99
2018-12-18T05:45:50.680Z,99.99
2018-12-18T05:46:50.653Z,99.99
2018-12-18T05:47:50.628Z,99.99
2018-12-18T05:48:50.602Z,99.99
2018-12-18T05:49:50.580Z,99.99
2018-12-18T05:50:50.554Z,99.99
2018-12-18T05:51:50.529Z,99.99
2018-12-18T05:52:50.512Z,99.99
2018-12-18T05:53:50.484Z,99.99
2018-12-18T05:54:50.457Z,99.99
2018-12-18T05:55:50.429Z,99.99
2018-12-18T05:56:50.415Z,99.99
2018-12-18T05:57:50.384Z,99.99
2018-12-18T05:58:50.354Z,99.99
2018-12-18T05:59:50.332Z,99.99
2018-12-18T06:00:50.307Z,99.99
2018-12-18T06:01:50.281Z,99.99
2018-12-18T06:02:50.260Z,99.99
2018-12-18T06:03:50.233Z,99.99
2018-12-18T06:04:50.210Z,99.99
2018-12-18T06:05:50.180Z,99.99
2018-12-18T06:06:50.155Z,99.99
2018-12-18T06:07:50.132Z,99.99
2018-12-18T06:08:50.107Z,99.99
2018-12-18T06:09:50.082Z,99.99
2018-12-18T06:10:50.058Z,99.99
2018-12-18T06:11:50.031Z,99.99
2018-12-18T06:12:50.008Z,99.99
2018-12-18T06:13:49.983Z,99.99
2018-12-18T06:14:49.960Z,99.99
2018-12-18T06:15:49.937Z,99.99
2018-12-18T06:16:49.910Z,99.99
2018-12-18T06:17:49.979Z,99.99
2018-12-18T06:18:49.857Z,99.99
2018-12-18T06:19:49.836Z,99.99
2018-12-18T06:20:49.810Z,99.99
2018-12-18T06:21:49.784Z,99.99
2018-12-18T06:22:49.761Z,99.99
2018-12-18T06:23:49.733Z,99.99
2018-12-18T06:24:49.712Z,99.99
2018-12-18T06:25:50.410Z,99.99
2018-12-18T06:26:49.658Z,99.99
2018-12-18T06:27:49.633Z,99.99
2018-12-18T06:28:49.613Z,99.99
2018-12-18T06:29:49.583Z,99.99
2018-12-18T06:30:49.557Z,99.99
2018-12-18T06:31:49.536Z,99.99
2018-12-18T06:32:49.508Z,99.99
2018-12-18T06:33:49.495Z,99.99
2018-12-18T06:34:49.459Z,99.99
2018-12-18T06:35:49.437Z,99.99
2018-12-18T06:36:49.414Z,99.99
2018-12-18T06:37:49.386Z,99.99
2018-12-18T06:38:49.360Z,99.99
2018-12-18T06:39:49.335Z,99.99
2018-12-18T06:40:49.310Z,99.99
2018-12-18T06:41:49.284Z,99.99
2018-12-18T06:42:49.260Z,99.99
2018-12-18T06:43:49.236Z,99.99
2018-12-18T06:44:49.212Z,99.99
2018-12-18T06:45:49.186Z,99.99
2018-12-18T06:46:49.162Z,99.99
2018-12-18T06:47:49.139Z,99.99
2018-12-18T06:48:49.113Z,99.99
2018-12-18T06:49:49.092Z,99.99
2018-12-18T06:50:49.062Z,99.99
2018-12-18T06:51:49.036Z,99.99
2018-12-18T06:52:49.015Z,99.99
2018-12-18T06:53:48.999Z,99.99
2018-12-18T06:54:48.963Z,99.99
2018-12-18T06:55:48.938Z,99.99
2018-12-18T06:56:48.914Z,99.99
2018-12-18T06:57:48.887Z,99.99
2018-12-18T06:58:48.863Z,99.99
2018-12-18T06:59:48.839Z,99.99
2018-12-18T07:00:48.814Z,99.99
2018-12-18T07:01:48.789Z,99.99
2018-12-18T07:02:48.764Z,99.99
2018-12-18T07:03:48.739Z,99.99
2018-12-18T07:04:48.716Z,99.99
2018-12-18T07:05:48.691Z,99.99
2018-12-18T07:06:48.666Z,99.99
2018-12-18T07:07:48.648Z,99.99
2018-12-18T07:08:48.615Z,99.99
2018-12-18T07:09:48.591Z,99.99
2018-12-18T07:10:48.570Z,99.99
2018-12-18T07:11:48.543Z,99.99
2018-12-18T07:12:48.516Z,99.99
2018-12-18T07:13:48.491Z,99.99
2018-12-18T07:14:48.466Z,99.99
2018-12-18T07:15:48.443Z,99.99
2018-12-18T07:16:48.417Z,99.99
2018-12-18T07:17:48.391Z,99.99
2018-12-18T07:18:48.378Z,99.99
2018-12-18T07:19:48.343Z,99.99
2018-12-18T07:20:48.320Z,99.99
2018-12-18T07:21:48.292Z,99.99
2018-12-18T07:22:48.268Z,99.99
2018-12-18T07:23:48.242Z,99.99
2018-12-18T07:24:48.217Z,99.99
2018-12-18T07:25:48.195Z,99.99
2018-12-18T07:26:48.396Z,99.99
2018-12-18T07:27:48.143Z,99.99
2018-12-18T07:28:48.119Z,99.99
2018-12-18T07:29:48.094Z,99.99
2018-12-18T07:30:48.068Z,99.99
2018-12-18T07:31:48.043Z,99.99
2018-12-18T07:32:48.020Z,99.99
2018-12-18T07:33:47.994Z,99.99
2018-12-18T07:34:47.970Z,99.99
2018-12-18T07:35:47.945Z,99.99
2018-12-18T07:36:47.921Z,99.99
2018-12-18T07:37:47.895Z,99.99
2018-12-18T07:38:47.871Z,99.99
2018-12-18T07:39:47.845Z,99.99
2018-12-18T07:40:47.822Z,99.99
2018-12-18T07:41:47.797Z,99.99
2018-12-18T07:42:47.770Z,99.99
2018-12-18T07:43:47.748Z,99.99
2018-12-18T07:44:47.723Z,99.99
2018-12-18T07:45:47.698Z,99.99
2018-12-18T07:46:47.671Z,99.99
2018-12-18T07:47:47.651Z,99.99
2018-12-18T07:48:47.627Z,99.99
2018-12-18T07:49:47.598Z,99.99
2018-12-18T07:50:47.576Z,99.99
2018-12-18T07:51:47.548Z,99.99
2018-12-18T07:52:47.524Z,99.99
2018-12-18T07:53:47.501Z,99.99
2018-12-18T07:54:47.480Z,99.99
2018-12-18T07:55:47.449Z,99.99
2018-12-18T07:56:47.429Z,99.99
2018-12-18T07:57:48.378Z,99.99
2018-12-18T07:58:47.384Z,99.99
2018-12-18T07:59:47.352Z,99.99
2018-12-18T08:00:47.330Z,99.99
2018-12-18T08:01:47.302Z,99.99
2018-12-18T08:02:47.275Z,99.99
2018-12-18T08:03:47.251Z,99.99
2018-12-18T08:04:47.226Z,99.99
2018-12-18T08:05:47.202Z,99.99
2018-12-18T08:06:47.177Z,99.99
2018-12-18T08:07:47.154Z,99.99
2018-12-18T08:08:47.126Z,99.99
2018-12-18T08:09:47.102Z,99.99
2018-12-18T08:10:47.076Z,99.99
2018-12-18T08:11:47.050Z,99.99
2018-12-18T08:12:47.028Z,99.99
2018-12-18T08:13:47.002Z,99.99
2018-12-18T08:14:46.977Z,99.99
2018-12-18T08:15:46.953Z,99.99
2018-12-18T08:16:46.927Z,99.99
2018-12-18T08:17:46.904Z,99.99
2018-12-18T08:18:46.877Z,99.99
2018-12-18T08:19:46.854Z,99.99
2018-12-18T08:20:46.828Z,99.99
2018-12-18T08:21:46.801Z,99.99
2018-12-18T08:22:46.779Z,99.99
2018-12-18T08:23:46.753Z,99.99
2018-12-18T08:24:46.725Z,99.99
2018-12-18T08:25:46.703Z,99.99
2018-12-18T08:26:46.676Z,99.99
2018-12-18T08:27:46.656Z,99.99
2018-12-18T08:28:46.625Z,99.99
2018-12-18T08:29:46.601Z,99.99
2018-12-18T08:30:46.577Z,99.99
2018-12-18T08:31:46.550Z,99.99
2018-12-18T08:32:46.526Z,99.99
2018-12-18T08:33:46.501Z,99.99
2018-12-18T08:34:46.474Z,99.99
2018-12-18T08:35:46.449Z,99.99
2018-12-18T08:36:46.424Z,99.99
2018-12-18T08:37:46.402Z,99.99
2018-12-18T08:38:46.374Z,99.99
2018-12-18T08:39:46.349Z,99.99
2018-12-18T08:40:46.347Z,99.99
2018-12-18T08:41:46.301Z,99.99
2018-12-18T08:42:46.274Z,99.99
2018-12-18T08:43:46.251Z,99.99
2018-12-18T08:44:46.223Z,99.99
2018-12-18T08:45:46.199Z,99.99
2018-12-18T08:46:46.175Z,99.99
2018-12-18T08:47:46.147Z,99.99
2018-12-18T08:48:46.124Z,99.99
2018-12-18T08:49:46.102Z,99.99
2018-12-18T08:50:46.073Z,99.99
2018-12-18T08:51:46.047Z,99.99
2018-12-18T08:52:46.024Z,99.99
2018-12-18T08:53:45.999Z,99.99
2018-12-18T08:54:45.972Z,99.99
2018-12-18T08:55:45.947Z,99.99
2018-12-18T08:56:45.925Z,99.99
2018-12-18T08:57:45.900Z,99.99
2018-12-18T08:58:46.351Z,99.99
2018-12-18T08:59:45.847Z,99.99
2018-12-18T09:00:45.823Z,99.99
2018-12-18T09:01:45.799Z,99.99
2018-12-18T09:02:45.771Z,99.99
2018-12-18T09:03:45.746Z,99.99
2018-12-18T09:04:45.725Z,99.99
2018-12-18T09:05:45.699Z,99.99
2018-12-18T09:06:45.677Z,99.99
2018-12-18T09:07:45.645Z,99.99
2018-12-18T09:08:45.620Z,99.99
2018-12-18T09:09:45.597Z,99.99
2018-12-18T09:10:45.574Z,99.99
2018-12-18T09:11:45.546Z,99.99
2018-12-18T09:12:45.522Z,99.99
2018-12-18T09:13:45.500Z,99.99
2018-12-18T09:14:45.471Z,99.99
2018-12-18T09:15:45.447Z,99.99
2018-12-18T09:16:45.421Z,99.99
2018-12-18T09:17:45.397Z,99.99
2018-12-18T09:18:45.370Z,99.99
2018-12-18T09:19:45.347Z,99.99
2018-12-18T09:20:45.323Z,99.99
2018-12-18T09:21:45.296Z,99.99
2018-12-18T09:22:45.273Z,99.99
2018-12-18T09:23:45.245Z,99.99
2018-12-18T09:24:45.221Z,99.99
2018-12-18T09:25:45.198Z,99.99
2018-12-18T09:26:45.172Z,99.99
2018-12-18T09:27:45.146Z,99.99
2018-12-18T09:28:45.122Z,99.99
2018-12-18T09:29:45.102Z,99.99
2018-12-18T09:30:45.070Z,99.99
2018-12-18T09:31:45.045Z,99.99
2018-12-18T09:32:45.022Z,99.99
2018-12-18T09:33:44.999Z,99.99
2018-12-18T09:34:44.972Z,99.99
2018-12-18T09:35:49.630Z,99.99
2018-12-18T09:36:44.926Z,99.99
2018-12-18T09:37:44.897Z,99.99
2018-12-18T09:38:44.875Z,99.99
2018-12-18T09:39:44.848Z,99.99
2018-12-18T09:40:44.823Z,99.99
2018-12-18T09:41:44.797Z,99.99
2018-12-18T09:42:44.772Z,99.99
2018-12-18T09:43:44.754Z,99.99
2018-12-18T09:44:44.724Z,99.99
2018-12-18T09:45:44.700Z,99.99
2018-12-18T09:46:44.675Z,99.99
2018-12-18T09:47:44.649Z,99.99
2018-12-18T09:48:44.625Z,99.99
2018-12-18T09:49:44.603Z,99.99
2018-12-18T09:50:44.575Z,99.99
2018-12-18T09:51:44.551Z,99.99
2018-12-18T09:52:44.531Z,99.99
2018-12-18T09:53:44.503Z,99.99
2018-12-18T09:54:44.476Z,99.99
2018-12-18T09:55:44.459Z,99.99
2018-12-18T09:56:44.427Z,99.99
2018-12-18T09:57:44.404Z,99.99
2018-12-18T09:58:44.381Z,99.99
2018-12-18T09:59:44.352Z,99.99
2018-12-18T10:00:44.332Z,99.99
2018-12-18T10:01:44.305Z,99.99
2018-12-18T10:02:44.281Z,99.99
2018-12-18T10:03:44.256Z,99.99
2018-12-18T10:04:44.230Z,99.99
2018-12-18T10:05:44.209Z,99.99
2018-12-18T10:06:45.102Z,99.99
2018-12-18T10:07:44.157Z,99.99
2018-12-18T10:08:44.137Z,99.99
2018-12-18T10:09:44.109Z,99.99
2018-12-18T10:10:44.084Z,99.99
2018-12-18T10:11:44.058Z,99.99
2018-12-18T10:12:44.036Z,99.99
2018-12-18T10:13:44.011Z,99.99
2018-12-18T10:14:43.984Z,99.99
2018-12-18T10:15:43.966Z,99.99
2018-12-18T10:16:43.935Z,99.99
2018-12-18T10:17:43.914Z,99.99
2018-12-18T10:18:43.887Z,99.99
2018-12-18T10:19:43.863Z,99.99
2018-12-18T10:20:43.839Z,99.99
2018-12-18T10:21:43.813Z,99.99
2018-12-18T10:22:43.792Z,99.99
2018-12-18T10:23:43.764Z,99.99
2018-12-18T10:24:43.740Z,99.99
2018-12-18T10:25:43.717Z,99.99
2018-12-18T10:26:43.693Z,99.99
2018-12-18T10:27:43.667Z,99.99
2018-12-18T10:28:43.643Z,99.99
2018-12-18T10:29:43.619Z,99.99
2018-12-18T10:30:44.317Z,99.99
2018-12-18T10:31:43.582Z,99.99
2018-12-18T10:32:43.544Z,99.99
2018-12-18T10:33:43.522Z,99.99
2018-12-18T10:34:43.495Z,99.99
2018-12-18T10:35:43.472Z,99.99
2018-12-18T10:36:43.449Z,99.99
2018-12-18T10:37:43.423Z,99.99
2018-12-18T10:38:43.397Z,99.99
2018-12-18T10:39:43.375Z,99.99
2018-12-18T10:40:43.350Z,99.99
2018-12-18T10:41:43.326Z,99.99
2018-12-18T10:42:43.300Z,99.99
2018-12-18T10:43:43.302Z,99.99
2018-12-18T10:44:43.251Z,99.99
2018-12-18T10:45:43.228Z,99.99
2018-12-18T10:46:43.203Z,99.99
2018-12-18T10:47:43.188Z,99.99
2018-12-18T10:48:43.154Z,99.99
2018-12-18T10:49:43.131Z,99.99
2018-12-18T10:50:43.107Z,99.99
2018-12-18T10:51:43.082Z,99.99
2018-12-18T10:52:43.056Z,99.99
2018-12-18T10:53:43.033Z,99.99
2018-12-18T10:54:43.008Z,99.99
2018-12-18T10:55:42.985Z,99.99
2018-12-18T10:56:42.960Z,99.99
2018-12-18T10:57:42.936Z,99.99
2018-12-18T10:58:42.913Z,99.99
2018-12-18T10:59:42.886Z,99.99
2018-12-18T11:00:42.864Z,99.99
2018-12-18T11:01:42.840Z,99.99
2018-12-18T11:02:42.815Z,99.99
2018-12-18T11:03:42.794Z,99.99
2018-12-18T11:04:42.766Z,99.99
2018-12-18T11:05:42.742Z,99.99
2018-12-18T11:06:42.719Z,99.99
2018-12-18T11:07:42.694Z,99.99
2018-12-18T11:08:42.672Z,99.99
2018-12-18T11:09:42.647Z,99.99
2018-12-18T11:10:42.622Z,99.99
2018-12-18T11:11:42.598Z,99.99
2018-12-18T11:12:42.573Z,99.99
2018-12-18T11:13:42.550Z,99.99
2018-12-18T11:14:42.526Z,99.99
2018-12-18T11:15:42.502Z,99.99
2018-12-18T11:16:42.481Z,99.99
2018-12-18T11:17:42.455Z,99.99
2018-12-18T11:18:42.435Z,99.99
2018-12-18T11:19:42.405Z,99.99
2018-12-18T11:20:42.384Z,99.99
2018-12-18T11:21:42.360Z,99.99
2018-12-18T11:22:42.335Z,99.99
2018-12-18T11:23:42.313Z,99.99
2018-12-18T11:24:42.288Z,99.99
2018-12-18T11:25:42.290Z,99.99
2018-12-18T11:26:42.237Z,99.99
2018-12-18T11:27:42.215Z,99.99
2018-12-18T11:28:42.192Z,99.99
2018-12-18T11:29:42.173Z,99.99
2018-12-18T11:30:42.144Z,99.99
2018-12-18T11:31:42.294Z,99.99
2018-12-18T11:32:42.099Z,99.99
2018-12-18T11:33:42.074Z,99.99
2018-12-18T11:34:42.050Z,99.99
2018-12-18T11:35:42.028Z,99.99
2018-12-18T11:36:42.003Z,99.99
2018-12-18T11:37:41.980Z,99.99
2018-12-18T11:38:41.956Z,99.99
2018-12-18T11:39:41.932Z,99.99
2018-12-18T11:40:41.909Z,99.99
2018-12-18T11:41:41.885Z,99.99
2018-12-18T11:42:41.864Z,99.99
2018-12-18T11:43:41.840Z,99.99
2018-12-18T11:44:41.817Z,99.99
2018-12-18T11:45:41.830Z,99.99
2018-12-18T11:46:41.766Z,99.99
2018-12-18T11:47:41.745Z,99.99
2018-12-18T11:48:41.795Z,99.99
2018-12-18T11:49:41.700Z,99.99
2018-12-18T11:50:41.678Z,99.99
2018-12-18T11:51:41.654Z,99.99
2018-12-18T11:52:41.636Z,99.99
2018-12-18T11:53:41.606Z,99.99
2018-12-18T11:54:41.583Z,99.99
2018-12-18T11:55:41.562Z,99.99
2018-12-18T11:56:41.554Z,99.99
2018-12-18T11:57:41.517Z,99.99
2018-12-18T11:58:41.493Z,99.99
2018-12-18T11:59:41.483Z,99.99
2018-12-18T12:00:41.451Z,99.99
2018-12-18T12:01:41.424Z,99.99
2018-12-18T12:02:42.922Z,99.98
2018-12-18T12:03:41.376Z,99.99
2018-12-18T12:04:41.353Z,99.79
2018-12-18T12:05:41.332Z,99.69
2018-12-18T12:06:41.307Z,99.31
2018-12-18T12:07:41.287Z,99.22
2018-12-18T12:08:41.272Z,99.31
2018-12-18T12:09:41.240Z,99.50
2018-12-18T12:10:41.218Z,99.12
2018-12-18T12:11:41.194Z,99.27
2018-12-18T12:12:41.173Z,99.27
2018-12-18T12:13:41.152Z,98.98
2018-12-18T12:14:41.127Z,99.46
2018-12-18T12:15:41.105Z,99.17
2018-12-18T12:16:41.082Z,99.27
2018-12-18T12:17:41.058Z,98.79
2018-12-18T12:18:41.035Z,98.41
2018-12-18T12:19:41.013Z,99.08
2018-12-18T12:20:40.994Z,98.88
2018-12-18T12:21:40.968Z,99.17
2018-12-18T12:22:40.950Z,99.27
2018-12-18T12:23:40.922Z,98.50
2018-12-18T12:24:40.899Z,98.60
2018-12-18T12:25:40.881Z,98.88
2018-12-18T12:26:40.857Z,98.22
2018-12-18T12:27:40.834Z,98.60
2018-12-18T12:28:40.811Z,98.50
2018-12-18T12:29:40.789Z,97.46
2018-12-18T12:30:40.764Z,98.03
2018-12-18T12:31:40.745Z,98.41
2018-12-18T12:32:40.720Z,98.41
2018-12-18T12:33:40.698Z,98.13
2018-12-18T12:34:40.676Z,98.88
2018-12-18T12:35:40.651Z,97.93
2018-12-18T12:36:40.632Z,97.93
2018-12-18T12:37:40.608Z,97.36
2018-12-18T12:38:40.591Z,97.46
2018-12-18T12:39:40.563Z,97.17
2018-12-18T12:40:40.544Z,97.84
2018-12-18T12:41:40.518Z,97.46
2018-12-18T12:42:40.499Z,96.60
2018-12-18T12:43:40.475Z,95.94
2018-12-18T12:44:40.463Z,95.75
2018-12-18T12:45:40.429Z,95.84
2018-12-18T12:46:40.412Z,96.22
2018-12-18T12:47:40.387Z,96.60
2018-12-18T12:48:40.364Z,95.84
2018-12-18T12:49:40.340Z,95.84
2018-12-18T12:50:40.318Z,95.84
2018-12-18T12:51:40.296Z,95.65
2018-12-18T12:52:40.272Z,95.56